sensor_id;sensor_type;location;lat;lon;timestamp;P1;durP1;ratioP1;P2;durP2;ratioP2
31910;SDS011;18457;52.432;16.914;2024-03-08T00:01:25;76.20;;;30.10;;
31910;SDS011;18457;52.432;16.914;2024-03-08T00:03:57;70.50;;;29.50;;
31910;SDS011;18457;52.432;16.914;2024-03-08T00:06:29;77.30;;;29.30;;
31910;SDS011;18457;52.432;16.914;2024-03-08T00:09:01;64.10;;;22.60;;
31910;SDS011;18457;52.432;16.914;2024-03-08T00:11:33;74.90;;;30.60;;
31910;SDS011;18457;52.432;16.914;2024-03-08T00:14:05;67.10;;;29.50;;
31910;SDS011;18457;52.432;16.914;2024-03-08T00:16:37;70.60;;;28.90;;
31910;SDS011;18457;52.432;16.914;2024-03-08T00:19:13;63.70;;;27.40;;
31910;SDS011;18457;52.432;16.914;2024-03-08T00:21:44;75.90;;;29.10;;
31910;SDS011;18457;52.432;16.914;2024-03-08T00:24:16;62.90;;;22.80;;
31910;SDS011;18457;52.432;16.914;2024-03-08T00:26:53;78.10;;;31.60;;
31910;SDS011;18457;52.432;16.914;2024-03-08T00:29:26;70.10;;;28.50;;
31910;SDS011;18457;52.432;16.914;2024-03-08T00:31:58;71.90;;;29.80;;
31910;SDS011;18457;52.432;16.914;2024-03-08T00:34:30;78.30;;;30.00;;
31910;SDS011;18457;52.432;16.914;2024-03-08T00:37:03;81.70;;;30.30;;
31910;SDS011;18457;52.432;16.914;2024-03-08T00:39:35;78.00;;;30.20;;
31910;SDS011;18457;52.432;16.914;2024-03-08T00:42:07;77.60;;;32.70;;
31910;SDS011;18457;52.432;16.914;2024-03-08T00:44:39;68.40;;;27.90;;
31910;SDS011;18457;52.432;16.914;2024-03-08T00:47:12;73.30;;;30.10;;
31910;SDS011;18457;52.432;16.914;2024-03-08T00:49:44;70.80;;;29.20;;
31910;SDS011;18457;52.432;16.914;2024-03-08T00:52:16;68.80;;;30.10;;
31910;SDS011;18457;52.432;16.914;2024-03-08T00:54:48;69.50;;;29.00;;
31910;SDS011;18457;52.432;16.914;2024-03-08T00:57:20;76.60;;;29.70;;
31910;SDS011;18457;52.432;16.914;2024-03-08T00:59:52;51.30;;;21.60;;
31910;SDS011;18457;52.432;16.914;2024-03-08T01:02:25;68.90;;;28.90;;
31910;SDS011;18457;52.432;16.914;2024-03-08T01:04:58;64.40;;;29.20;;
31910;SDS011;18457;52.432;16.914;2024-03-08T01:07:30;68.60;;;27.30;;
31910;SDS011;18457;52.432;16.914;2024-03-08T01:10:02;78.20;;;30.80;;
31910;SDS011;18457;52.432;16.914;2024-03-08T01:12:39;74.80;;;30.90;;
31910;SDS011;18457;52.432;16.914;2024-03-08T01:15:12;73.90;;;31.20;;
31910;SDS011;18457;52.432;16.914;2024-03-08T01:17:44;75.80;;;29.10;;
31910;SDS011;18457;52.432;16.914;2024-03-08T01:20:16;65.80;;;27.80;;
31910;SDS011;18457;52.432;16.914;2024-03-08T01:22:48;73.20;;;30.40;;
31910;SDS011;18457;52.432;16.914;2024-03-08T01:25:21;83.50;;;34.60;;
31910;SDS011;18457;52.432;16.914;2024-03-08T01:27:53;82.10;;;33.40;;
31910;SDS011;18457;52.432;16.914;2024-03-08T01:30:25;74.60;;;32.80;;
31910;SDS011;18457;52.432;16.914;2024-03-08T01:32:57;55.00;;;22.10;;
31910;SDS011;18457;52.432;16.914;2024-03-08T01:35:29;49.50;;;22.50;;
31910;SDS011;18457;52.432;16.914;2024-03-08T01:38:01;74.40;;;31.30;;
31910;SDS011;18457;52.432;16.914;2024-03-08T01:40:34;74.20;;;30.70;;
31910;SDS011;18457;52.432;16.914;2024-03-08T01:43:17;66.80;;;29.20;;
31910;SDS011;18457;52.432;16.914;2024-03-08T01:45:50;70.30;;;30.10;;
31910;SDS011;18457;52.432;16.914;2024-03-08T01:50:54;59.80;;;27.70;;
31910;SDS011;18457;52.432;16.914;2024-03-08T01:53:26;68.80;;;28.40;;
31910;SDS011;18457;52.432;16.914;2024-03-08T01:55:59;61.30;;;27.80;;
31910;SDS011;18457;52.432;16.914;2024-03-08T01:58:32;64.60;;;28.20;;
31910;SDS011;18457;52.432;16.914;2024-03-08T02:01:05;67.00;;;30.70;;
31910;SDS011;18457;52.432;16.914;2024-03-08T02:03:38;70.10;;;29.10;;
31910;SDS011;18457;52.432;16.914;2024-03-08T02:06:13;59.10;;;27.20;;
31910;SDS011;18457;52.432;16.914;2024-03-08T02:08:46;72.10;;;28.00;;
31910;SDS011;18457;52.432;16.914;2024-03-08T02:13:50;60.00;;;27.90;;
31910;SDS011;18457;52.432;16.914;2024-03-08T02:16:22;67.90;;;28.90;;
31910;SDS011;18457;52.432;16.914;2024-03-08T02:18:54;69.10;;;29.00;;
31910;SDS011;18457;52.432;16.914;2024-03-08T02:21:26;69.60;;;29.30;;
31910;SDS011;18457;52.432;16.914;2024-03-08T02:23:58;53.10;;;21.00;;
31910;SDS011;18457;52.432;16.914;2024-03-08T02:26:31;79.30;;;31.20;;
31910;SDS011;18457;52.432;16.914;2024-03-08T02:29:03;69.00;;;30.70;;
31910;SDS011;18457;52.432;16.914;2024-03-08T02:31:35;68.70;;;29.20;;
31910;SDS011;18457;52.432;16.914;2024-03-08T02:34:08;71.70;;;31.00;;
31910;SDS011;18457;52.432;16.914;2024-03-08T02:36:40;75.20;;;30.60;;
31910;SDS011;18457;52.432;16.914;2024-03-08T02:39:12;72.30;;;30.20;;
31910;SDS011;18457;52.432;16.914;2024-03-08T02:41:44;78.40;;;31.30;;
31910;SDS011;18457;52.432;16.914;2024-03-08T02:44:16;69.90;;;29.00;;
31910;SDS011;18457;52.432;16.914;2024-03-08T02:46:50;67.10;;;27.80;;
31910;SDS011;18457;52.432;16.914;2024-03-08T02:49:24;75.00;;;29.00;;
31910;SDS011;18457;52.432;16.914;2024-03-08T02:51:56;66.50;;;29.00;;
31910;SDS011;18457;52.432;16.914;2024-03-08T02:54:28;70.10;;;30.10;;
31910;SDS011;18457;52.432;16.914;2024-03-08T02:57:00;63.70;;;27.50;;
31910;SDS011;18457;52.432;16.914;2024-03-08T03:02:05;72.70;;;28.30;;
31910;SDS011;18457;52.432;16.914;2024-03-08T03:04:40;68.60;;;27.60;;
31910;SDS011;18457;52.432;16.914;2024-03-08T03:07:12;63.50;;;27.80;;
31910;SDS011;18457;52.432;16.914;2024-03-08T03:09:44;65.20;;;27.40;;
31910;SDS011;18457;52.432;16.914;2024-03-08T03:12:16;68.50;;;29.20;;
31910;SDS011;18457;52.432;16.914;2024-03-08T03:14:48;74.40;;;28.70;;
31910;SDS011;18457;52.432;16.914;2024-03-08T03:17:20;71.40;;;29.70;;
31910;SDS011;18457;52.432;16.914;2024-03-08T03:19:52;70.90;;;29.90;;
31910;SDS011;18457;52.432;16.914;2024-03-08T03:22:24;65.00;;;27.20;;
31910;SDS011;18457;52.432;16.914;2024-03-08T03:24:56;67.80;;;28.70;;
31910;SDS011;18457;52.432;16.914;2024-03-08T03:27:30;70.60;;;28.90;;
31910;SDS011;18457;52.432;16.914;2024-03-08T03:30:02;65.40;;;29.30;;
31910;SDS011;18457;52.432;16.914;2024-03-08T03:33:07;65.70;;;28.10;;
31910;SDS011;18457;52.432;16.914;2024-03-08T03:35:42;67.10;;;30.00;;
31910;SDS011;18457;52.432;16.914;2024-03-08T03:38:14;84.40;;;31.20;;
31910;SDS011;18457;52.432;16.914;2024-03-08T03:40:46;70.70;;;29.50;;
31910;SDS011;18457;52.432;16.914;2024-03-08T03:43:21;73.00;;;30.50;;
31910;SDS011;18457;52.432;16.914;2024-03-08T03:45:55;71.90;;;29.90;;
31910;SDS011;18457;52.432;16.914;2024-03-08T03:48:26;55.70;;;22.60;;
31910;SDS011;18457;52.432;16.914;2024-03-08T03:50:58;67.10;;;30.50;;
31910;SDS011;18457;52.432;16.914;2024-03-08T03:53:30;68.20;;;30.90;;
31910;SDS011;18457;52.432;16.914;2024-03-08T03:56:03;76.80;;;31.80;;
31910;SDS011;18457;52.432;16.914;2024-03-08T03:58:36;74.40;;;29.90;;
31910;SDS011;18457;52.432;16.914;2024-03-08T04:01:09;75.00;;;30.80;;
31910;SDS011;18457;52.432;16.914;2024-03-08T04:03:42;63.00;;;29.30;;
31910;SDS011;18457;52.432;16.914;2024-03-08T04:06:14;74.50;;;31.00;;
31910;SDS011;18457;52.432;16.914;2024-03-08T04:08:46;50.10;;;20.70;;
31910;SDS011;18457;52.432;16.914;2024-03-08T04:11:18;71.00;;;28.20;;
31910;SDS011;18457;52.432;16.914;2024-03-08T04:13:50;69.50;;;28.80;;
31910;SDS011;18457;52.432;16.914;2024-03-08T04:16:23;71.00;;;29.40;;
31910;SDS011;18457;52.432;16.914;2024-03-08T04:21:26;72.90;;;29.00;;
31910;SDS011;18457;52.432;16.914;2024-03-08T04:24:00;72.90;;;30.30;;
31910;SDS011;18457;52.432;16.914;2024-03-08T04:26:32;62.80;;;29.50;;
31910;SDS011;18457;52.432;16.914;2024-03-08T04:29:04;66.50;;;29.40;;
31910;SDS011;18457;52.432;16.914;2024-03-08T04:31:36;70.60;;;29.90;;
31910;SDS011;18457;52.432;16.914;2024-03-08T04:34:08;65.80;;;28.80;;
31910;SDS011;18457;52.432;16.914;2024-03-08T04:36:40;74.50;;;29.90;;
31910;SDS011;18457;52.432;16.914;2024-03-08T04:39:12;70.80;;;30.00;;
31910;SDS011;18457;52.432;16.914;2024-03-08T04:41:45;64.70;;;28.40;;
31910;SDS011;18457;52.432;16.914;2024-03-08T04:44:17;72.30;;;28.70;;
31910;SDS011;18457;52.432;16.914;2024-03-08T04:46:48;69.10;;;30.10;;
31910;SDS011;18457;52.432;16.914;2024-03-08T04:49:20;79.80;;;28.90;;
31910;SDS011;18457;52.432;16.914;2024-03-08T04:51:52;73.10;;;30.60;;
31910;SDS011;18457;52.432;16.914;2024-03-08T04:54:25;67.30;;;28.10;;
31910;SDS011;18457;52.432;16.914;2024-03-08T04:56:57;80.30;;;31.60;;
31910;SDS011;18457;52.432;16.914;2024-03-08T04:59:32;71.70;;;30.00;;
31910;SDS011;18457;52.432;16.914;2024-03-08T05:02:05;74.40;;;31.20;;
31910;SDS011;18457;52.432;16.914;2024-03-08T05:04:37;72.00;;;31.30;;
31910;SDS011;18457;52.432;16.914;2024-03-08T05:07:09;82.50;;;30.40;;
31910;SDS011;18457;52.432;16.914;2024-03-08T05:09:41;70.60;;;29.60;;
31910;SDS011;18457;52.432;16.914;2024-03-08T05:12:20;71.80;;;30.00;;
31910;SDS011;18457;52.432;16.914;2024-03-08T05:14:52;71.00;;;31.30;;
31910;SDS011;18457;52.432;16.914;2024-03-08T05:17:24;73.30;;;30.30;;
31910;SDS011;18457;52.432;16.914;2024-03-08T05:22:27;83.20;;;32.60;;
31910;SDS011;18457;52.432;16.914;2024-03-08T05:24:59;81.80;;;31.70;;
31910;SDS011;18457;52.432;16.914;2024-03-08T05:27:31;77.40;;;32.40;;
31910;SDS011;18457;52.432;16.914;2024-03-08T05:30:04;78.20;;;34.10;;
31910;SDS011;18457;52.432;16.914;2024-03-08T05:32:43;80.90;;;33.00;;
31910;SDS011;18457;52.432;16.914;2024-03-08T05:35:15;77.70;;;33.10;;
31910;SDS011;18457;52.432;16.914;2024-03-08T05:37:47;61.00;;;23.40;;
31910;SDS011;18457;52.432;16.914;2024-03-08T05:40:19;87.70;;;35.60;;
31910;SDS011;18457;52.432;16.914;2024-03-08T05:42:51;73.30;;;31.20;;
31910;SDS011;18457;52.432;16.914;2024-03-08T05:45:25;81.40;;;32.10;;
31910;SDS011;18457;52.432;16.914;2024-03-08T05:47:57;79.30;;;32.80;;
31910;SDS011;18457;52.432;16.914;2024-03-08T05:50:29;105.10;;;35.60;;
31910;SDS011;18457;52.432;16.914;2024-03-08T05:53:01;70.90;;;25.60;;
31910;SDS011;18457;52.432;16.914;2024-03-08T05:55:35;76.20;;;32.00;;
31910;SDS011;18457;52.432;16.914;2024-03-08T06:00:40;79.60;;;30.70;;
31910;SDS011;18457;52.432;16.914;2024-03-08T06:05:46;82.50;;;32.30;;
31910;SDS011;18457;52.432;16.914;2024-03-08T06:10:49;78.40;;;32.70;;
31910;SDS011;18457;52.432;16.914;2024-03-08T06:13:22;88.00;;;33.20;;
31910;SDS011;18457;52.432;16.914;2024-03-08T06:15:58;79.20;;;31.20;;
31910;SDS011;18457;52.432;16.914;2024-03-08T06:18:33;87.60;;;34.10;;
31910;SDS011;18457;52.432;16.914;2024-03-08T06:21:07;76.00;;;32.70;;
31910;SDS011;18457;52.432;16.914;2024-03-08T06:23:42;87.20;;;33.10;;
31910;SDS011;18457;52.432;16.914;2024-03-08T06:26:14;82.50;;;33.00;;
31910;SDS011;18457;52.432;16.914;2024-03-08T06:28:46;87.30;;;33.50;;
31910;SDS011;18457;52.432;16.914;2024-03-08T06:31:20;84.70;;;35.00;;
31910;SDS011;18457;52.432;16.914;2024-03-08T06:33:52;85.00;;;34.10;;
31910;SDS011;18457;52.432;16.914;2024-03-08T06:36:25;80.80;;;35.20;;
31910;SDS011;18457;52.432;16.914;2024-03-08T06:38:57;93.60;;;37.00;;
31910;SDS011;18457;52.432;16.914;2024-03-08T06:41:30;98.10;;;34.30;;
31910;SDS011;18457;52.432;16.914;2024-03-08T06:44:06;98.30;;;36.10;;
31910;SDS011;18457;52.432;16.914;2024-03-08T06:46:38;98.50;;;35.10;;
31910;SDS011;18457;52.432;16.914;2024-03-08T06:49:10;94.20;;;36.40;;
31910;SDS011;18457;52.432;16.914;2024-03-08T06:51:42;98.40;;;36.10;;
31910;SDS011;18457;52.432;16.914;2024-03-08T06:54:15;94.40;;;36.80;;
31910;SDS011;18457;52.432;16.914;2024-03-08T06:56:47;97.70;;;35.90;;
31910;SDS011;18457;52.432;16.914;2024-03-08T06:59:19;69.00;;;29.90;;
31910;SDS011;18457;52.432;16.914;2024-03-08T07:01:51;91.60;;;37.70;;
31910;SDS011;18457;52.432;16.914;2024-03-08T07:04:26;81.50;;;36.10;;
31910;SDS011;18457;52.432;16.914;2024-03-08T07:06:59;85.10;;;37.30;;
31910;SDS011;18457;52.432;16.914;2024-03-08T07:12:02;96.20;;;38.60;;
31910;SDS011;18457;52.432;16.914;2024-03-08T07:14:34;91.10;;;37.00;;
31910;SDS011;18457;52.432;16.914;2024-03-08T07:17:10;89.50;;;37.80;;
31910;SDS011;18457;52.432;16.914;2024-03-08T07:19:42;84.60;;;37.00;;
31910;SDS011;18457;52.432;16.914;2024-03-08T07:22:14;94.60;;;37.90;;
31910;SDS011;18457;52.432;16.914;2024-03-08T07:24:46;66.90;;;29.20;;
31910;SDS011;18457;52.432;16.914;2024-03-08T07:27:33;105.90;;;38.90;;
31910;SDS011;18457;52.432;16.914;2024-03-08T07:30:06;84.80;;;37.10;;
31910;SDS011;18457;52.432;16.914;2024-03-08T07:32:40;91.50;;;36.50;;
31910;SDS011;18457;52.432;16.914;2024-03-08T07:35:13;82.50;;;33.70;;
31910;SDS011;18457;52.432;16.914;2024-03-08T07:37:48;81.80;;;35.90;;
31910;SDS011;18457;52.432;16.914;2024-03-08T07:40:20;86.60;;;37.20;;
31910;SDS011;18457;52.432;16.914;2024-03-08T07:42:52;87.30;;;32.00;;
31910;SDS011;18457;52.432;16.914;2024-03-08T07:45:24;87.70;;;33.80;;
31910;SDS011;18457;52.432;16.914;2024-03-08T07:47:56;74.40;;;32.90;;
31910;SDS011;18457;52.432;16.914;2024-03-08T07:50:29;76.80;;;32.70;;
31910;SDS011;18457;52.432;16.914;2024-03-08T07:53:02;81.50;;;33.30;;
31910;SDS011;18457;52.432;16.914;2024-03-08T07:55:35;81.70;;;34.90;;
31910;SDS011;18457;52.432;16.914;2024-03-08T07:58:09;78.90;;;34.70;;
31910;SDS011;18457;52.432;16.914;2024-03-08T08:00:42;81.20;;;33.20;;
31910;SDS011;18457;52.432;16.914;2024-03-08T08:03:14;54.50;;;22.30;;
31910;SDS011;18457;52.432;16.914;2024-03-08T08:05:50;89.50;;;34.40;;
31910;SDS011;18457;52.432;16.914;2024-03-08T08:08:22;79.80;;;32.60;;
31910;SDS011;18457;52.432;16.914;2024-03-08T08:10:55;73.00;;;33.50;;
31910;SDS011;18457;52.432;16.914;2024-03-08T08:13:28;72.30;;;30.70;;
31910;SDS011;18457;52.432;16.914;2024-03-08T08:16:01;97.90;;;34.40;;
31910;SDS011;18457;52.432;16.914;2024-03-08T08:18:35;72.50;;;31.30;;
31910;SDS011;18457;52.432;16.914;2024-03-08T08:21:07;95.90;;;34.20;;
31910;SDS011;18457;52.432;16.914;2024-03-08T08:23:40;74.10;;;29.60;;
31910;SDS011;18457;52.432;16.914;2024-03-08T08:26:12;72.00;;;32.30;;
31910;SDS011;18457;52.432;16.914;2024-03-08T08:28:43;72.60;;;33.10;;
31910;SDS011;18457;52.432;16.914;2024-03-08T08:31:16;77.60;;;33.00;;
31910;SDS011;18457;52.432;16.914;2024-03-08T08:33:48;70.00;;;31.80;;
31910;SDS011;18457;52.432;16.914;2024-03-08T08:36:25;75.70;;;30.50;;
31910;SDS011;18457;52.432;16.914;2024-03-08T08:38:59;65.50;;;30.30;;
31910;SDS011;18457;52.432;16.914;2024-03-08T08:41:32;70.40;;;29.90;;
31910;SDS011;18457;52.432;16.914;2024-03-08T08:44:05;60.10;;;27.70;;
31910;SDS011;18457;52.432;16.914;2024-03-08T08:46:45;55.70;;;26.20;;
31910;SDS011;18457;52.432;16.914;2024-03-08T08:49:18;58.50;;;25.70;;
31910;SDS011;18457;52.432;16.914;2024-03-08T08:51:50;53.90;;;23.20;;
31910;SDS011;18457;52.432;16.914;2024-03-08T08:54:27;51.10;;;22.90;;
31910;SDS011;18457;52.432;16.914;2024-03-08T08:57:00;54.40;;;23.00;;
31910;SDS011;18457;52.432;16.914;2024-03-08T08:59:36;53.80;;;21.90;;
31910;SDS011;18457;52.432;16.914;2024-03-08T09:02:09;47.10;;;20.90;;
31910;SDS011;18457;52.432;16.914;2024-03-08T09:04:46;50.30;;;20.10;;
31910;SDS011;18457;52.432;16.914;2024-03-08T09:07:18;48.30;;;20.00;;
31910;SDS011;18457;52.432;16.914;2024-03-08T09:09:51;49.10;;;22.60;;
31910;SDS011;18457;52.432;16.914;2024-03-08T09:12:26;47.80;;;20.40;;
31910;SDS011;18457;52.432;16.914;2024-03-08T09:14:58;41.40;;;18.70;;
31910;SDS011;18457;52.432;16.914;2024-03-08T09:17:31;48.80;;;20.40;;
31910;SDS011;18457;52.432;16.914;2024-03-08T09:20:03;50.90;;;20.40;;
31910;SDS011;18457;52.432;16.914;2024-03-08T09:22:36;41.50;;;18.60;;
31910;SDS011;18457;52.432;16.914;2024-03-08T09:25:09;32.90;;;17.10;;
31910;SDS011;18457;52.432;16.914;2024-03-08T09:27:41;44.20;;;20.30;;
31910;SDS011;18457;52.432;16.914;2024-03-08T09:30:15;44.70;;;19.90;;
31910;SDS011;18457;52.432;16.914;2024-03-08T09:32:47;34.10;;;17.60;;
31910;SDS011;18457;52.432;16.914;2024-03-08T09:35:21;36.30;;;17.60;;
31910;SDS011;18457;52.432;16.914;2024-03-08T09:37:53;40.20;;;18.40;;
31910;SDS011;18457;52.432;16.914;2024-03-08T09:40:25;37.00;;;18.20;;
31910;SDS011;18457;52.432;16.914;2024-03-08T09:42:57;43.00;;;16.50;;
31910;SDS011;18457;52.432;16.914;2024-03-08T09:45:29;34.80;;;15.70;;
31910;SDS011;18457;52.432;16.914;2024-03-08T09:48:07;36.80;;;14.30;;
31910;SDS011;18457;52.432;16.914;2024-03-08T09:50:43;33.50;;;16.50;;
31910;SDS011;18457;52.432;16.914;2024-03-08T09:53:15;36.90;;;16.90;;
31910;SDS011;18457;52.432;16.914;2024-03-08T09:55:47;32.80;;;15.90;;
31910;SDS011;18457;52.432;16.914;2024-03-08T09:58:21;44.00;;;16.00;;
31910;SDS011;18457;52.432;16.914;2024-03-08T10:01:08;32.20;;;15.80;;
31910;SDS011;18457;52.432;16.914;2024-03-08T10:03:40;35.10;;;16.00;;
31910;SDS011;18457;52.432;16.914;2024-03-08T10:06:12;34.20;;;15.60;;
31910;SDS011;18457;52.432;16.914;2024-03-08T10:08:44;31.60;;;15.70;;
31910;SDS011;18457;52.432;16.914;2024-03-08T10:11:16;33.50;;;16.20;;
31910;SDS011;18457;52.432;16.914;2024-03-08T10:13:49;29.20;;;13.00;;
31910;SDS011;18457;52.432;16.914;2024-03-08T10:16:21;24.40;;;12.40;;
31910;SDS011;18457;52.432;16.914;2024-03-08T10:18:53;24.70;;;12.00;;
31910;SDS011;18457;52.432;16.914;2024-03-08T10:21:26;18.80;;;10.70;;
31910;SDS011;18457;52.432;16.914;2024-03-08T10:23:58;24.50;;;12.00;;
31910;SDS011;18457;52.432;16.914;2024-03-08T10:26:34;27.30;;;13.00;;
31910;SDS011;18457;52.432;16.914;2024-03-08T10:29:07;32.20;;;12.90;;
31910;SDS011;18457;52.432;16.914;2024-03-08T10:31:39;27.50;;;14.20;;
31910;SDS011;18457;52.432;16.914;2024-03-08T10:34:13;25.20;;;13.40;;
31910;SDS011;18457;52.432;16.914;2024-03-08T10:36:45;17.40;;;8.70;;
31910;SDS011;18457;52.432;16.914;2024-03-08T10:39:24;25.90;;;12.30;;
31910;SDS011;18457;52.432;16.914;2024-03-08T10:41:58;26.60;;;13.30;;
31910;SDS011;18457;52.432;16.914;2024-03-08T10:47:29;28.50;;;13.30;;
31910;SDS011;18457;52.432;16.914;2024-03-08T10:50:08;30.60;;;14.10;;
31910;SDS011;18457;52.432;16.914;2024-03-08T10:52:50;30.60;;;13.50;;
31910;SDS011;18457;52.432;16.914;2024-03-08T10:55:24;25.80;;;14.30;;
31910;SDS011;18457;52.432;16.914;2024-03-08T10:57:58;31.60;;;15.50;;
31910;SDS011;18457;52.432;16.914;2024-03-08T11:03:01;31.60;;;14.90;;
31910;SDS011;18457;52.432;16.914;2024-03-08T11:08:18;30.50;;;14.80;;
31910;SDS011;18457;52.432;16.914;2024-03-08T11:10:51;33.90;;;14.60;;
31910;SDS011;18457;52.432;16.914;2024-03-08T11:13:34;29.10;;;14.40;;
31910;SDS011;18457;52.432;16.914;2024-03-08T11:16:09;28.70;;;14.10;;
31910;SDS011;18457;52.432;16.914;2024-03-08T11:18:45;26.50;;;14.40;;
31910;SDS011;18457;52.432;16.914;2024-03-08T11:21:20;37.90;;;13.90;;
31910;SDS011;18457;52.432;16.914;2024-03-08T11:24:00;27.90;;;13.90;;
31910;SDS011;18457;52.432;16.914;2024-03-08T11:26:34;26.60;;;13.60;;
31910;SDS011;18457;52.432;16.914;2024-03-08T11:32:12;35.50;;;16.20;;
31910;SDS011;18457;52.432;16.914;2024-03-08T11:34:47;35.90;;;15.80;;
31910;SDS011;18457;52.432;16.914;2024-03-08T11:37:20;28.70;;;14.60;;
31910;SDS011;18457;52.432;16.914;2024-03-08T11:42:27;26.30;;;13.00;;
31910;SDS011;18457;52.432;16.914;2024-03-08T11:44:59;29.20;;;13.90;;
31910;SDS011;18457;52.432;16.914;2024-03-08T11:47:42;23.30;;;11.40;;
31910;SDS011;18457;52.432;16.914;2024-03-08T11:50:16;29.10;;;13.30;;
31910;SDS011;18457;52.432;16.914;2024-03-08T11:52:52;38.60;;;13.30;;
31910;SDS011;18457;52.432;16.914;2024-03-08T11:55:30;25.70;;;13.00;;
31910;SDS011;18457;52.432;16.914;2024-03-08T11:58:05;26.30;;;13.30;;
31910;SDS011;18457;52.432;16.914;2024-03-08T12:00:39;23.80;;;11.30;;
31910;SDS011;18457;52.432;16.914;2024-03-08T12:03:12;32.60;;;13.20;;
31910;SDS011;18457;52.432;16.914;2024-03-08T12:05:44;17.30;;;9.00;;
31910;SDS011;18457;52.432;16.914;2024-03-08T12:08:16;22.30;;;11.50;;
31910;SDS011;18457;52.432;16.914;2024-03-08T12:10:48;23.40;;;12.40;;
31910;SDS011;18457;52.432;16.914;2024-03-08T12:13:20;23.80;;;10.80;;
31910;SDS011;18457;52.432;16.914;2024-03-08T12:15:52;22.60;;;12.60;;
31910;SDS011;18457;52.432;16.914;2024-03-08T12:18:25;19.60;;;11.00;;
31910;SDS011;18457;52.432;16.914;2024-03-08T12:21:05;21.60;;;11.40;;
31910;SDS011;18457;52.432;16.914;2024-03-08T12:23:39;22.30;;;11.20;;
31910;SDS011;18457;52.432;16.914;2024-03-08T12:26:13;30.00;;;13.30;;
31910;SDS011;18457;52.432;16.914;2024-03-08T12:28:46;25.80;;;12.10;;
31910;SDS011;18457;52.432;16.914;2024-03-08T12:31:18;22.30;;;12.40;;
31910;SDS011;18457;52.432;16.914;2024-03-08T12:36:26;28.90;;;13.30;;
31910;SDS011;18457;52.432;16.914;2024-03-08T12:38:58;28.30;;;12.80;;
31910;SDS011;18457;52.432;16.914;2024-03-08T12:41:30;27.40;;;13.20;;
31910;SDS011;18457;52.432;16.914;2024-03-08T12:44:04;28.20;;;13.70;;
31910;SDS011;18457;52.432;16.914;2024-03-08T12:46:37;28.90;;;13.70;;
31910;SDS011;18457;52.432;16.914;2024-03-08T12:49:10;26.60;;;13.90;;
31910;SDS011;18457;52.432;16.914;2024-03-08T12:51:46;30.00;;;15.00;;
31910;SDS011;18457;52.432;16.914;2024-03-08T12:54:18;25.90;;;13.00;;
31910;SDS011;18457;52.432;16.914;2024-03-08T12:56:52;25.20;;;14.30;;
31910;SDS011;18457;52.432;16.914;2024-03-08T12:59:24;27.10;;;13.50;;
31910;SDS011;18457;52.432;16.914;2024-03-08T13:01:57;20.80;;;10.60;;
31910;SDS011;18457;52.432;16.914;2024-03-08T13:04:29;32.40;;;14.70;;
31910;SDS011;18457;52.432;16.914;2024-03-08T13:07:01;30.20;;;14.40;;
31910;SDS011;18457;52.432;16.914;2024-03-08T13:09:33;28.70;;;12.30;;
31910;SDS011;18457;52.432;16.914;2024-03-08T13:12:07;24.60;;;12.30;;
31910;SDS011;18457;52.432;16.914;2024-03-08T13:14:41;26.40;;;13.70;;
31910;SDS011;18457;52.432;16.914;2024-03-08T13:17:14;26.70;;;13.70;;
31910;SDS011;18457;52.432;16.914;2024-03-08T13:19:47;31.20;;;14.40;;
31910;SDS011;18457;52.432;16.914;2024-03-08T13:22:20;38.30;;;14.50;;
31910;SDS011;18457;52.432;16.914;2024-03-08T13:24:54;35.50;;;13.60;;
31910;SDS011;18457;52.432;16.914;2024-03-08T13:27:26;25.00;;;11.70;;
31910;SDS011;18457;52.432;16.914;2024-03-08T13:29:58;37.10;;;12.90;;
31910;SDS011;18457;52.432;16.914;2024-03-08T13:35:02;26.40;;;12.50;;
31910;SDS011;18457;52.432;16.914;2024-03-08T13:37:42;35.00;;;12.10;;
31910;SDS011;18457;52.432;16.914;2024-03-08T13:42:48;20.50;;;10.70;;
31910;SDS011;18457;52.432;16.914;2024-03-08T13:45:21;21.10;;;11.60;;
31910;SDS011;18457;52.432;16.914;2024-03-08T13:47:54;23.70;;;11.60;;
31910;SDS011;18457;52.432;16.914;2024-03-08T13:52:59;25.10;;;12.60;;
31910;SDS011;18457;52.432;16.914;2024-03-08T13:55:33;21.50;;;11.90;;
31910;SDS011;18457;52.432;16.914;2024-03-08T13:58:05;36.40;;;14.60;;
31910;SDS011;18457;52.432;16.914;2024-03-08T14:00:38;22.70;;;11.40;;
31910;SDS011;18457;52.432;16.914;2024-03-08T14:03:13;24.70;;;11.50;;
31910;SDS011;18457;52.432;16.914;2024-03-08T14:05:47;23.30;;;11.60;;
31910;SDS011;18457;52.432;16.914;2024-03-08T14:08:19;21.50;;;11.40;;
31910;SDS011;18457;52.432;16.914;2024-03-08T14:10:52;25.40;;;11.00;;
31910;SDS011;18457;52.432;16.914;2024-03-08T14:13:25;25.90;;;11.40;;
31910;SDS011;18457;52.432;16.914;2024-03-08T14:15:57;24.90;;;11.80;;
31910;SDS011;18457;52.432;16.914;2024-03-08T14:18:30;26.20;;;11.60;;
31910;SDS011;18457;52.432;16.914;2024-03-08T14:21:04;24.80;;;12.30;;
31910;SDS011;18457;52.432;16.914;2024-03-08T14:23:40;24.10;;;12.30;;
31910;SDS011;18457;52.432;16.914;2024-03-08T14:26:13;22.70;;;10.70;;
31910;SDS011;18457;52.432;16.914;2024-03-08T14:28:45;23.60;;;11.40;;
31910;SDS011;18457;52.432;16.914;2024-03-08T14:31:21;28.50;;;11.90;;
31910;SDS011;18457;52.432;16.914;2024-03-08T14:33:55;20.20;;;10.90;;
31910;SDS011;18457;52.432;16.914;2024-03-08T14:36:28;27.30;;;11.80;;
31910;SDS011;18457;52.432;16.914;2024-03-08T14:39:01;35.80;;;13.40;;
31910;SDS011;18457;52.432;16.914;2024-03-08T14:44:04;49.30;;;10.80;;
31910;SDS011;18457;52.432;16.914;2024-03-08T14:46:37;23.50;;;13.40;;
31910;SDS011;18457;52.432;16.914;2024-03-08T14:49:11;26.30;;;10.80;;
31910;SDS011;18457;52.432;16.914;2024-03-08T14:51:44;49.20;;;13.20;;
31910;SDS011;18457;52.432;16.914;2024-03-08T14:54:18;31.00;;;12.50;;
31910;SDS011;18457;52.432;16.914;2024-03-08T14:56:52;30.70;;;13.50;;
31910;SDS011;18457;52.432;16.914;2024-03-08T14:59:26;21.80;;;11.40;;
31910;SDS011;18457;52.432;16.914;2024-03-08T15:02:00;28.10;;;10.60;;
31910;SDS011;18457;52.432;16.914;2024-03-08T15:04:36;25.10;;;13.60;;
31910;SDS011;18457;52.432;16.914;2024-03-08T15:07:11;27.90;;;13.40;;
31910;SDS011;18457;52.432;16.914;2024-03-08T15:09:44;26.80;;;12.70;;
31910;SDS011;18457;52.432;16.914;2024-03-08T15:12:16;33.00;;;13.40;;
31910;SDS011;18457;52.432;16.914;2024-03-08T15:14:49;34.90;;;13.10;;
31910;SDS011;18457;52.432;16.914;2024-03-08T15:17:22;26.90;;;13.30;;
31910;SDS011;18457;52.432;16.914;2024-03-08T15:19:54;28.70;;;14.50;;
31910;SDS011;18457;52.432;16.914;2024-03-08T15:22:26;33.40;;;14.90;;
31910;SDS011;18457;52.432;16.914;2024-03-08T15:24:58;32.20;;;16.00;;
31910;SDS011;18457;52.432;16.914;2024-03-08T15:27:31;35.90;;;12.40;;
31910;SDS011;18457;52.432;16.914;2024-03-08T15:30:08;42.30;;;15.20;;
31910;SDS011;18457;52.432;16.914;2024-03-08T15:32:45;53.80;;;15.20;;